Pagrindinis puslapis
METAR-TAF:

METAR-TAF

Oro uostai :

La Argelia

Locha, Ekvadoras

platuma: 03-59-45S, ilguma: 079-22-19W, Aukštis: 1236 m

Dabartinis oras

Ataskaita buvo paskelbta 4 valandos ir 43 minutes, ne 23:00 UTC
Vėjas 7 kt iš Pietryčių
Temperatūra 26°C
Drėgmė 51%
Slėgis 1013 hPa
Matomumas 10 km arba daugiau
Su prošvaistėmis ne aukštis 4000 ft

METAR: SECA 162300Z 13007KT 9999 BKN040 26/15 Q1013

Laikas: 22:43 (03:43 UTC)


TAF: trūkstamas

Orai ataskaitas ir orų prognozės (METAR, TAF).

turimą stotys yra geltonos ir raudonos taškus žemėlapyje.

Perkelti pele per norėdami pamatyti stoties vardą.

Tada spustelėkite, norėdami matyti oro stebėjimo ir prognozės.

Norėdami pakeisti žemėlapį: spustelėkite ant žalios mygtukų su juodo kryžiaus žemyn,; žalią mygtuką su brūkšneliu, jei norite nutolinti; arba žalių rodyklių gretimoms žemėlapius.


METAR-TAF: